Time;durP1;ratioP1;P1;durP2;ratioP2;P2;SDS_P1;SDS_P2;PMS_P1;PMS_P2;Temp;Humidity;BMP_temperature;BMP_pressure;BME280_temperature;BME280_humidity;BME280_pressure;Samples;Min_cycle;Max_cycle;Signal;HPM_P1;HPM_P2
2021/09/07 00:04:01;;;;;;;5.90;4.23;;;;;;;;;;10338134;28;20050;-88
2021/09/07 00:09:01;;;;;;;11.43;4.00;;;;;;;;;;10337911;28;20026;-87
2021/09/07 00:14:01;;;;;;;9.50;4.10;;;;;;;;;;10352019;28;20499;-89
2021/09/07 00:19:02;;;;;;;11.83;4.23;;;;;;;;;;10337488;28;20518;-88
2021/09/07 00:24:02;;;;;;;7.43;4.47;;;;;;;;;;10377798;28;20044;-88
2021/09/07 00:29:03;;;;;;;5.38;3.83;;;;;;;;;;10364862;28;20445;-87
2021/09/07 00:34:03;;;;;;;9.93;4.00;;;;;;;;;;10375908;28;20102;-87
2021/09/07 00:39:04;;;;;;;5.67;3.90;;;;;;;;;;10338833;28;20026;-86
2021/09/07 00:44:18;;;;;;;8.03;3.87;;;;;;;;;;10364822;28;20509;-86
2021/09/07 00:49:19;;;;;;;6.25;3.65;;;;;;;;;;10346602;28;20444;-86
2021/09/07 00:54:20;;;;;;;5.18;3.30;;;;;;;;;;10336246;28;20116;-85
2021/09/07 00:59:21;;;;;;;4.15;3.70;;;;;;;;;;10335668;28;20081;-86
2021/09/07 01:04:22;;;;;;;6.35;3.97;;;;;;;;;;10335141;28;20033;-85
2021/09/07 01:09:24;;;;;;;6.60;3.83;;;;;;;;;;10348649;28;20578;-86
2021/09/07 01:14:36;;;;;;;4.22;3.80;;;;;;;;;;10331213;28;20061;-85
2021/09/07 01:19:36;;;;;;;5.13;3.33;;;;;;;;;;10340403;28;20104;-87
2021/09/07 01:24:37;;;;;;;5.67;3.60;;;;;;;;;;10371631;28;20105;-87
2021/09/07 01:29:39;;;;;;;4.60;3.40;;;;;;;;;;10334791;28;20547;-87
2021/09/07 01:34:41;;;;;;;7.03;3.80;;;;;;;;;;10344913;28;20030;-86
2021/09/07 01:39:41;;;;;;;6.13;4.10;;;;;;;;;;10350038;28;20114;-86
2021/09/07 01:44:43;;;;;;;5.22;3.35;;;;;;;;;;10375061;28;20129;-86
2021/09/07 01:49:43;;;;;;;5.25;3.58;;;;;;;;;;10373269;28;20116;-86
2021/09/07 01:54:46;;;;;;;4.30;3.20;;;;;;;;;;10374355;28;20050;-86
2021/09/07 01:59:46;;;;;;;6.38;3.33;;;;;;;;;;10330285;28;20034;-86
2021/09/07 02:04:47;;;;;;;9.43;3.50;;;;;;;;;;10374365;28;20109;-85
2021/09/07 02:09:49;;;;;;;6.97;3.30;;;;;;;;;;10373665;28;20053;-87
2021/09/07 02:14:50;;;;;;;7.90;3.40;;;;;;;;;;10342415;28;20440;-87
2021/09/07 02:19:52;;;;;;;4.28;3.00;;;;;;;;;;10374065;28;20119;-87
2021/09/07 02:24:53;;;;;;;5.25;3.20;;;;;;;;;;10372867;28;20269;-88
2021/09/07 02:29:53;;;;;;;6.35;3.20;;;;;;;;;;10373455;28;20183;-88
2021/09/07 02:34:54;;;;;;;4.83;3.30;;;;;;;;;;10373147;28;20061;-88
2021/09/07 02:39:54;;;;;;;4.30;3.20;;;;;;;;;;10373163;28;20498;-87
2021/09/07 02:44:54;;;;;;;3.97;2.97;;;;;;;;;;10356379;28;20163;-87
2021/09/07 02:49:55;;;;;;;5.40;2.80;;;;;;;;;;10356592;28;20045;-87
2021/09/07 02:54:55;;;;;;;6.03;3.00;;;;;;;;;;10373430;28;20440;-87
2021/09/07 02:59:56;;;;;;;5.80;3.20;;;;;;;;;;10372912;28;20034;-88
2021/09/07 03:04:57;;;;;;;8.57;3.10;;;;;;;;;;10372689;28;20109;-87
2021/09/07 03:09:57;;;;;;;6.13;3.10;;;;;;;;;;10371826;28;20121;-84
2021/09/07 03:14:57;;;;;;;6.40;2.90;;;;;;;;;;10373220;28;20531;-84
2021/09/07 03:19:58;;;;;;;9.13;3.33;;;;;;;;;;10386829;28;20032;-84
2021/09/07 03:24:58;;;;;;;4.63;3.37;;;;;;;;;;10373261;28;20448;-85
2021/09/07 03:29:59;;;;;;;6.78;3.08;;;;;;;;;;10362621;28;20057;-86
2021/09/07 03:34:59;;;;;;;4.33;2.87;;;;;;;;;;10379146;28;20033;-86
2021/09/07 03:39:59;;;;;;;7.03;2.77;;;;;;;;;;10334876;28;20061;-86
2021/09/07 03:45:04;;;;;;;4.43;3.10;;;;;;;;;;10379827;28;20057;-86
2021/09/07 03:50:06;;;;;;;4.38;2.85;;;;;;;;;;10380015;28;20026;-86
2021/09/07 03:55:07;;;;;;;4.63;3.00;;;;;;;;;;10378942;28;20025;-90
2021/09/07 04:00:08;;;;;;;5.93;3.33;;;;;;;;;;10360639;28;20042;-88
2021/09/07 04:05:09;;;;;;;5.15;3.00;;;;;;;;;;10378767;28;20022;-87
2021/09/07 04:10:09;;;;;;;22.98;3.83;;;;;;;;;;10360888;28;20026;-87
2021/09/07 04:15:10;;;;;;;9.70;3.30;;;;;;;;;;10376741;28;20075;-87
2021/09/07 04:20:11;;;;;;;11.20;3.05;;;;;;;;;;10378036;28;20026;-87
2021/09/07 04:25:12;;;;;;;6.03;3.00;;;;;;;;;;10365442;28;20124;-87
2021/09/07 04:30:12;;;;;;;4.30;3.00;;;;;;;;;;10377251;28;20104;-87
2021/09/07 04:35:13;;;;;;;4.45;2.85;;;;;;;;;;10360033;28;20551;-87
2021/09/07 04:40:13;;;;;;;4.70;3.28;;;;;;;;;;10377555;28;20030;-87
2021/09/07 04:45:14;;;;;;;6.18;3.08;;;;;;;;;;10376180;28;20137;-86
2021/09/07 04:50:14;;;;;;;9.50;3.23;;;;;;;;;;10376255;28;20037;-88
2021/09/07 04:55:14;;;;;;;7.97;2.97;;;;;;;;;;10341255;28;20831;-86
2021/09/07 05:00:18;;;;;;;4.07;2.67;;;;;;;;;;10377253;28;20088;-86
2021/09/07 05:05:18;;;;;;;7.18;3.10;;;;;;;;;;10375644;28;20435;-95
2021/09/07 05:10:18;;;;;;;14.97;3.27;;;;;;;;;;10334117;28;20025;-90
2021/09/07 05:15:19;;;;;;;10.40;3.28;;;;;;;;;;10357114;28;20462;-86
2021/09/07 05:20:19;;;;;;;5.03;2.97;;;;;;;;;;10382110;28;20029;-91
2021/09/07 05:25:20;;;;;;;6.23;2.93;;;;;;;;;;10351820;28;20961;-81
2021/09/07 05:30:20;;;;;;;7.63;2.50;;;;;;;;;;10389568;28;20108;-79
2021/09/07 05:35:21;;;;;;;6.05;2.92;;;;;;;;;;10366499;28;20034;-80
2021/09/07 05:40:21;;;;;;;5.40;3.20;;;;;;;;;;10399252;28;20168;-80
2021/09/07 05:45:21;;;;;;;18.53;3.20;;;;;;;;;;10410080;28;21021;-80
2021/09/07 05:50:22;;;;;;;5.88;2.70;;;;;;;;;;10380199;28;20496;-80
2021/09/07 05:55:22;;;;;;;14.10;3.08;;;;;;;;;;10371423;28;20044;-80
2021/09/07 06:00:23;;;;;;;10.00;4.00;;;;;;;;;;10399941;28;20492;-81
2021/09/07 06:05:24;;;;;;;11.50;3.20;;;;;;;;;;10399722;28;20483;-80
2021/09/07 06:10:24;;;;;;;6.13;2.67;;;;;;;;;;10396018;28;20112;-80
2021/09/07 06:15:25;;;;;;;8.63;3.10;;;;;;;;;;10377496;28;20092;-81
2021/09/07 06:20:26;;;;;;;10.87;3.00;;;;;;;;;;10403565;28;20435;-80
2021/09/07 06:25:26;;;;;;;4.53;2.63;;;;;;;;;;10408952;28;20032;-79
2021/09/07 06:30:27;;;;;;;6.55;2.92;;;;;;;;;;10392623;28;20108;-79
2021/09/07 06:35:28;;;;;;;15.33;3.10;;;;;;;;;;10410272;28;20351;-79
2021/09/07 06:40:28;;;;;;;7.53;3.13;;;;;;;;;;10410383;28;20028;-79
2021/09/07 06:45:29;;;;;;;8.17;2.87;;;;;;;;;;10410037;28;20034;-80
2021/09/07 06:50:29;;;;;;;9.75;3.25;;;;;;;;;;10402168;28;20030;-80
2021/09/07 06:55:30;;;;;;;11.13;2.93;;;;;;;;;;10372835;28;20034;-80
2021/09/07 07:00:30;;;;;;;11.77;3.20;;;;;;;;;;10376665;28;20077;-80
2021/09/07 07:05:30;;;;;;;11.83;2.90;;;;;;;;;;10380841;28;20432;-81
2021/09/07 07:10:31;;;;;;;7.03;2.90;;;;;;;;;;10380996;28;20092;-81
2021/09/07 07:15:31;;;;;;;11.40;3.00;;;;;;;;;;10379793;28;20441;-82
2021/09/07 07:20:32;;;;;;;16.02;3.25;;;;;;;;;;10380306;28;20478;-79
2021/09/07 07:25:33;;;;;;;10.13;3.03;;;;;;;;;;10367282;28;20068;-81
2021/09/07 07:30:33;;;;;;;11.93;3.60;;;;;;;;;;10379226;28;20049;-80
2021/09/07 07:35:34;;;;;;;14.65;3.55;;;;;;;;;;10389881;28;20029;-79
2021/09/07 07:40:35;;;;;;;13.30;3.60;;;;;;;;;;10427436;23;20772;-80
2021/09/07 07:45:35;;;;;;;5.65;3.05;;;;;;;;;;10375493;28;20435;-80
2021/09/07 07:50:36;;;;;;;6.27;2.90;;;;;;;;;;10379283;28;20386;-80
2021/09/07 07:55:37;;;;;;;4.93;3.30;;;;;;;;;;10378707;28;20451;-82
2021/09/07 08:00:37;;;;;;;6.18;3.67;;;;;;;;;;10376934;28;20034;-82
2021/09/07 08:05:38;;;;;;;8.77;3.87;;;;;;;;;;10379653;28;20037;-82
2021/09/07 08:10:39;;;;;;;7.03;3.95;;;;;;;;;;10377634;28;20030;-83
2021/09/07 08:15:39;;;;;;;12.38;4.28;;;;;;;;;;10378073;28;20113;-82
2021/09/07 08:20:42;;;;;;;5.77;4.10;;;;;;;;;;10377903;28;20034;-82
2021/09/07 08:25:43;;;;;;;6.82;3.47;;;;;;;;;;10377098;28;20021;-83
2021/09/07 08:30:43;;;;;;;13.47;4.50;;;;;;;;;;10377327;28;20029;-85
2021/09/07 08:35:44;;;;;;;6.63;3.70;;;;;;;;;;10378178;28;20049;-86
2021/09/07 08:40:45;;;;;;;9.55;3.63;;;;;;;;;;10377811;28;20064;-85
2021/09/07 08:45:56;;;;;;;6.07;3.55;;;;;;;;;;10360327;28;20033;-86
2021/09/07 08:50:56;;;;;;;12.95;3.95;;;;;;;;;;10377128;28;20026;-84
2021/09/07 08:55:56;;;;;;;5.82;3.72;;;;;;;;;;10377437;28;20105;-85
2021/09/07 09:00:57;;;;;;;6.90;3.73;;;;;;;;;;10391521;28;20037;-87
2021/09/07 09:05:57;;;;;;;9.80;3.37;;;;;;;;;;10380253;28;20049;-86
2021/09/07 09:11:07;;;;;;;4.80;3.50;;;;;;;;;;10372624;28;20033;-87
2021/09/07 09:16:07;;;;;;;4.47;3.20;;;;;;;;;;10359055;28;20026;-87
2021/09/07 09:21:24;;;;;;;10.32;3.88;;;;;;;;;;10392362;28;20121;-86
2021/09/07 09:26:24;;;;;;;11.13;3.88;;;;;;;;;;10375675;28;20092;-86
2021/09/07 09:31:24;;;;;;;8.33;4.23;;;;;;;;;;10375636;28;20369;-88
2021/09/07 09:36:29;;;;;;;6.93;3.70;;;;;;;;;;10375737;28;20435;-86
2021/09/07 09:41:48;;;;;;;4.10;3.50;;;;;;;;;;10385689;28;20493;-85
2021/09/07 09:46:49;;;;;;;11.20;4.05;;;;;;;;;;10377423;28;20115;-86
2021/09/07 09:51:50;;;;;;;5.27;3.73;;;;;;;;;;10375228;28;20052;-86
2021/09/07 09:56:51;;;;;;;5.88;3.45;;;;;;;;;;10358193;28;20030;-89
2021/09/07 10:01:51;;;;;;;5.85;4.18;;;;;;;;;;10374953;28;20040;-87
2021/09/07 10:06:53;;;;;;;3.92;3.50;;;;;;;;;;10375690;28;20077;-90
2021/09/07 10:12:01;;;;;;;5.13;3.45;;;;;;;;;;10356316;28;20064;-87
2021/09/07 10:17:32;;;;;;;11.90;3.80;;;;;;;;;;10355980;28;20045;-88
2021/09/07 10:28:10;;;;;;;7.57;4.65;;;;;;;;;;10373163;28;20041;-84
2021/09/07 10:33:34;;;;;;;6.28;4.57;;;;;;;;;;10374020;28;20273;-83
2021/09/07 10:38:39;;;;;;;9.25;5.03;;;;;;;;;;10351762;28;20087;-85
2021/09/07 10:43:53;;;;;;;9.38;5.13;;;;;;;;;;10382662;28;20049;-85
2021/09/07 10:49:27;;;;;;;6.47;4.80;;;;;;;;;;10382186;28;20418;-84
2021/09/07 10:54:27;;;;;;;6.57;5.05;;;;;;;;;;10382061;28;20037;-85
2021/09/07 11:00:09;;;;;;;6.77;4.50;;;;;;;;;;10364356;28;20481;-84
2021/09/07 11:05:22;;;;;;;9.77;4.90;;;;;;;;;;10310596;28;20109;-84
2021/09/07 11:10:27;;;;;;;5.97;4.55;;;;;;;;;;10380965;28;20528;-85
2021/09/07 11:15:32;;;;;;;7.70;4.35;;;;;;;;;;10395288;28;20029;-85
2021/09/07 11:20:34;;;;;;;6.70;4.70;;;;;;;;;;10378597;28;20030;-83
2021/09/07 11:25:35;;;;;;;7.15;4.95;;;;;;;;;;10393845;28;20069;-83
2021/09/07 11:30:42;;;;;;;6.38;4.35;;;;;;;;;;10382963;28;20458;-83
2021/09/07 11:35:53;;;;;;;6.55;4.88;;;;;;;;;;10362569;28;20459;-84
2021/09/07 11:40:55;;;;;;;8.07;4.63;;;;;;;;;;10379081;28;20050;-84
2021/09/07 11:46:24;;;;;;;9.95;4.78;;;;;;;;;;10368796;28;20045;-84
2021/09/07 11:51:27;;;;;;;11.23;4.72;;;;;;;;;;10358445;28;20441;-84
2021/09/07 11:56:30;;;;;;;14.95;4.55;;;;;;;;;;10383161;28;20029;-84
2021/09/07 12:01:40;;;;;;;8.85;4.75;;;;;;;;;;10377481;28;20038;-84
2021/09/07 12:06:45;;;;;;;13.55;5.07;;;;;;;;;;10375214;28;20393;-84
2021/09/07 12:11:48;;;;;;;8.20;4.63;;;;;;;;;;10365053;28;20029;-84
2021/09/07 12:16:54;;;;;;;7.40;4.70;;;;;;;;;;10362447;28;20038;-84
2021/09/07 12:22:25;;;;;;;11.27;4.70;;;;;;;;;;10377227;28;20088;-84
2021/09/07 12:27:27;;;;;;;11.45;5.00;;;;;;;;;;10372088;28;20062;-84
2021/09/07 12:32:28;;;;;;;12.48;4.65;;;;;;;;;;10381339;28;20029;-84
2021/09/07 12:37:28;;;;;;;9.38;5.20;;;;;;;;;;10375689;28;20026;-85
2021/09/07 12:42:28;;;;;;;13.93;4.27;;;;;;;;;;10376340;28;20533;-85
2021/09/07 12:47:29;;;;;;;6.53;4.13;;;;;;;;;;10386719;28;20439;-85
2021/09/07 12:52:29;;;;;;;6.07;4.10;;;;;;;;;;10376151;28;20060;-85
2021/09/07 12:57:30;;;;;;;11.10;4.90;;;;;;;;;;10376350;28;20030;-86
2021/09/07 13:02:30;;;;;;;9.60;4.63;;;;;;;;;;10376618;28;20038;-84
2021/09/07 13:07:30;;;;;;;7.43;4.87;;;;;;;;;;10375970;28;20049;-85
2021/09/07 13:12:31;;;;;;;10.67;4.90;;;;;;;;;;10376026;28;20029;-84
2021/09/07 13:17:31;;;;;;;14.00;4.45;;;;;;;;;;10375319;28;20084;-84
2021/09/07 13:22:32;;;;;;;10.77;4.10;;;;;;;;;;10407125;28;20480;-82
2021/09/07 13:27:33;;;;;;;9.27;4.85;;;;;;;;;;10410210;28;20521;-81
2021/09/07 13:32:34;;;;;;;9.80;4.75;;;;;;;;;;10396312;28;20026;-83
2021/09/07 13:37:34;;;;;;;5.38;4.07;;;;;;;;;;10378646;28;20424;-84
2021/09/07 13:42:34;;;;;;;6.38;4.38;;;;;;;;;;10377812;28;20049;-81
2021/09/07 13:47:35;;;;;;;9.63;4.47;;;;;;;;;;10374880;28;20048;-85
2021/09/07 13:52:35;;;;;;;6.83;4.57;;;;;;;;;;10372515;28;20049;-83
2021/09/07 13:57:36;;;;;;;7.80;4.50;;;;;;;;;;10376981;28;20483;-84
2021/09/07 14:02:40;;;;;;;9.32;4.30;;;;;;;;;;10375760;28;20524;-82
2021/09/07 14:07:41;;;;;;;8.07;4.20;;;;;;;;;;10384223;28;20484;-80
2021/09/07 14:12:42;;;;;;;10.52;4.53;;;;;;;;;;10373578;28;20109;-82
2021/09/07 14:17:42;;;;;;;7.65;4.10;;;;;;;;;;10378757;28;20026;-86
2021/09/07 14:22:43;;;;;;;10.50;4.18;;;;;;;;;;10381633;28;20104;-84
2021/09/07 14:27:43;;;;;;;6.30;4.18;;;;;;;;;;10384645;28;20492;-80
2021/09/07 14:32:43;;;;;;;5.75;3.50;;;;;;;;;;10381318;28;20029;-82
2021/09/07 14:37:44;;;;;;;6.28;4.00;;;;;;;;;;10384305;28;20473;-81
2021/09/07 14:42:44;;;;;;;6.03;3.90;;;;;;;;;;10370586;28;20057;-82
2021/09/07 14:47:45;;;;;;;8.07;3.93;;;;;;;;;;10383882;28;20049;-81
2021/09/07 14:52:45;;;;;;;8.63;4.30;;;;;;;;;;10373396;28;20057;-83
2021/09/07 14:57:45;;;;;;;6.73;4.17;;;;;;;;;;10373876;28;20444;-83
2021/09/07 15:02:46;;;;;;;6.27;3.97;;;;;;;;;;10366799;28;20092;-83
2021/09/07 15:07:46;;;;;;;5.57;3.57;;;;;;;;;;10360539;28;20478;-83
2021/09/07 15:12:46;;;;;;;4.90;3.57;;;;;;;;;;10390506;28;20438;-85
2021/09/07 15:17:47;;;;;;;7.82;4.07;;;;;;;;;;10378999;28;20493;-84
2021/09/07 15:22:47;;;;;;;4.17;3.73;;;;;;;;;;10383708;28;20034;-81
2021/09/07 15:27:48;;;;;;;5.28;3.67;;;;;;;;;;10399060;28;20509;-84
2021/09/07 15:32:49;;;;;;;7.88;4.25;;;;;;;;;;10383504;28;20034;-82
2021/09/07 15:37:49;;;;;;;9.17;3.87;;;;;;;;;;10385381;28;20462;-83
2021/09/07 15:42:51;;;;;;;6.72;3.55;;;;;;;;;;10401812;28;20127;-83
2021/09/07 15:47:51;;;;;;;8.77;4.07;;;;;;;;;;10412075;28;20038;-83
2021/09/07 15:52:51;;;;;;;5.73;4.03;;;;;;;;;;10378429;28;20101;-83
2021/09/07 15:57:52;;;;;;;5.27;3.90;;;;;;;;;;10379323;28;20056;-83
2021/09/07 16:02:57;;;;;;;4.63;3.77;;;;;;;;;;10378492;28;20058;-83
2021/09/07 16:07:59;;;;;;;8.02;3.88;;;;;;;;;;10377387;28;20030;-83
2021/09/07 16:12:59;;;;;;;5.85;3.95;;;;;;;;;;10364852;28;20029;-83
2021/09/07 16:18:00;;;;;;;5.30;4.10;;;;;;;;;;10379148;28;20385;-84
2021/09/07 16:23:00;;;;;;;11.77;4.00;;;;;;;;;;10378489;28;20029;-84
2021/09/07 16:28:02;;;;;;;7.97;3.80;;;;;;;;;;10378242;28;20041;-83
2021/09/07 16:33:04;;;;;;;7.80;3.50;;;;;;;;;;10377526;28;20359;-84
2021/09/07 16:38:04;;;;;;;6.07;3.60;;;;;;;;;;10378123;28;20026;-81
2021/09/07 16:43:05;;;;;;;7.60;3.58;;;;;;;;;;10378087;28;20065;-83
2021/09/07 16:48:05;;;;;;;5.13;3.60;;;;;;;;;;10377887;28;20030;-82
2021/09/07 16:58:13;;;;;;;5.60;3.80;;;;;;;;;;10377206;28;20026;-82
2021/09/07 17:03:14;;;;;;;9.18;3.45;;;;;;;;;;10377208;28;20033;-83
2021/09/07 17:08:23;;;;;;;6.70;4.07;;;;;;;;;;10376887;28;20038;-82
2021/09/07 17:13:23;;;;;;;9.88;4.15;;;;;;;;;;10376411;28;20117;-86
2021/09/07 17:18:24;;;;;;;4.17;3.40;;;;;;;;;;10376688;28;20113;-83
2021/09/07 17:23:25;;;;;;;4.20;3.45;;;;;;;;;;10358997;28;20534;-82
2021/09/07 17:28:27;;;;;;;6.15;3.70;;;;;;;;;;10374083;28;20040;-84
2021/09/07 17:38:49;;;;;;;4.78;3.30;;;;;;;;;;10389982;28;20057;-84
2021/09/07 17:43:50;;;;;;;5.03;3.67;;;;;;;;;;10374264;28;20398;-86
2021/09/07 17:48:50;;;;;;;4.00;3.60;;;;;;;;;;10375786;28;20044;-84
2021/09/07 17:53:51;;;;;;;6.13;3.47;;;;;;;;;;10374386;28;20029;-84
2021/09/07 17:58:51;;;;;;;15.48;3.85;;;;;;;;;;10374834;28;20447;-84
2021/09/07 18:03:53;;;;;;;5.53;3.93;;;;;;;;;;10357168;28;20115;-82
2021/09/07 18:08:53;;;;;;;7.82;4.07;;;;;;;;;;10365786;28;20104;-84
2021/09/07 18:13:54;;;;;;;11.60;4.47;;;;;;;;;;10361102;28;20156;-85
2021/09/07 18:18:54;;;;;;;9.50;4.28;;;;;;;;;;10379741;28;20469;-85
2021/09/07 18:23:54;;;;;;;7.80;4.70;;;;;;;;;;10373702;28;20033;-85
2021/09/07 18:28:55;;;;;;;10.43;5.27;;;;;;;;;;10377332;28;20108;-85
2021/09/07 18:33:55;;;;;;;6.83;4.50;;;;;;;;;;10373175;28;20034;-84
2021/09/07 18:38:58;;;;;;;9.33;4.70;;;;;;;;;;10373642;28;20054;-84
2021/09/07 18:43:59;;;;;;;6.45;4.30;;;;;;;;;;10373110;28;20393;-84
2021/09/07 18:49:00;;;;;;;13.50;5.18;;;;;;;;;;10381345;28;20096;-84
2021/09/07 18:54:00;;;;;;;9.85;4.35;;;;;;;;;;10372780;28;20026;-84
2021/09/07 18:59:01;;;;;;;10.40;4.40;;;;;;;;;;10380455;28;20038;-84
2021/09/07 19:04:01;;;;;;;10.52;4.97;;;;;;;;;;10380499;28;20095;-85
2021/09/07 19:09:02;;;;;;;8.98;4.80;;;;;;;;;;10375890;28;20473;-84
2021/09/07 19:14:02;;;;;;;8.88;4.70;;;;;;;;;;10380422;28;20458;-85
2021/09/07 19:19:03;;;;;;;7.20;5.03;;;;;;;;;;10375589;28;20485;-84
2021/09/07 19:24:04;;;;;;;9.43;5.00;;;;;;;;;;10380198;28;20049;-84
2021/09/07 19:29:04;;;;;;;8.15;4.80;;;;;;;;;;10380668;28;20034;-84
2021/09/07 19:34:04;;;;;;;10.83;5.10;;;;;;;;;;10380677;28;20029;-87
2021/09/07 19:39:06;;;;;;;8.67;4.57;;;;;;;;;;10379453;28;20057;-85
2021/09/07 19:44:07;;;;;;;20.52;5.13;;;;;;;;;;10318276;23;20051;-85
2021/09/07 19:49:07;;;;;;;10.13;5.07;;;;;;;;;;10291618;28;20038;-86
2021/09/07 19:54:07;;;;;;;18.07;4.90;;;;;;;;;;10298510;28;20483;-86
2021/09/07 19:59:08;;;;;;;13.43;5.30;;;;;;;;;;10298264;28;20035;-86
2021/09/07 20:04:08;;;;;;;12.27;5.63;;;;;;;;;;10297474;28;20031;-86
2021/09/07 20:09:08;;;;;;;9.67;5.23;;;;;;;;;;10293300;28;20469;-86
2021/09/07 20:14:11;;;;;;;14.17;5.30;;;;;;;;;;10297664;28;20086;-86
2021/09/07 20:19:12;;;;;;;15.70;5.90;;;;;;;;;;10297575;28;20039;-86
2021/09/07 20:24:12;;;;;;;11.15;5.25;;;;;;;;;;10293764;28;20038;-86
2021/09/07 20:29:13;;;;;;;11.00;5.33;;;;;;;;;;10303325;28;20034;-89
2021/09/07 20:34:13;;;;;;;8.37;4.77;;;;;;;;;;10329111;28;20460;-90
2021/09/07 20:39:13;;;;;;;9.00;5.00;;;;;;;;;;10317369;28;20132;-89
2021/09/07 20:44:14;;;;;;;6.63;5.30;;;;;;;;;;10320176;28;20042;-88
2021/09/07 20:49:14;;;;;;;8.15;5.15;;;;;;;;;;10336802;28;20027;-87
2021/09/07 20:54:14;;;;;;;9.27;4.87;;;;;;;;;;10335013;28;20049;-87
2021/09/07 20:59:15;;;;;;;9.17;4.50;;;;;;;;;;10335239;28;20050;-87
2021/09/07 21:04:15;;;;;;;13.70;5.53;;;;;;;;;;10331945;28;20042;-87
2021/09/07 21:09:16;;;;;;;11.35;5.40;;;;;;;;;;10334534;28;20462;-87
2021/09/07 21:14:16;;;;;;;12.30;6.30;;;;;;;;;;10331427;28;20504;-87
2021/09/07 21:19:16;;;;;;;8.43;5.53;;;;;;;;;;10334134;28;20027;-86
2021/09/07 21:24:17;;;;;;;10.00;5.53;;;;;;;;;;10332932;28;20084;-90
2021/09/07 21:29:17;;;;;;;12.77;6.30;;;;;;;;;;10338412;28;20034;-90
2021/09/07 21:34:17;;;;;;;8.40;5.60;;;;;;;;;;10342487;28;20033;-90
2021/09/07 21:39:18;;;;;;;8.53;5.67;;;;;;;;;;10327255;28;20058;-91
2021/09/07 21:44:19;;;;;;;7.60;5.23;;;;;;;;;;10322014;28;20126;-90
2021/09/07 21:49:19;;;;;;;11.70;5.35;;;;;;;;;;10337407;28;20037;-91
2021/09/07 21:54:20;;;;;;;8.43;5.47;;;;;;;;;;10333171;28;20041;-91
2021/09/07 21:59:22;;;;;;;8.40;5.70;;;;;;;;;;10333606;28;20046;-91
2021/09/07 22:04:23;;;;;;;9.02;5.18;;;;;;;;;;10347780;28;20485;-91
2021/09/07 22:09:23;;;;;;;8.97;5.03;;;;;;;;;;10331997;28;20443;-89
2021/09/07 22:14:23;;;;;;;7.90;4.90;;;;;;;;;;10333503;28;20444;-87
2021/09/07 22:19:24;;;;;;;15.97;5.40;;;;;;;;;;10333187;28;20036;-86
2021/09/07 22:24:24;;;;;;;8.37;7.40;;;;;;;;;;10346947;28;20030;-84
2021/09/07 22:29:28;;;;;;;16.27;6.37;;;;;;;;;;10334031;28;20058;-85
2021/09/07 22:34:28;;;;;;;9.25;6.30;;;;;;;;;;10324722;28;20033;-85
2021/09/07 22:39:29;;;;;;;7.60;6.20;;;;;;;;;;10341948;28;20348;-86
2021/09/07 22:44:29;;;;;;;11.80;6.75;;;;;;;;;;10340962;28;20471;-86
2021/09/07 22:49:30;;;;;;;12.45;6.25;;;;;;;;;;10341018;28;20034;-85
2021/09/07 22:54:30;;;;;;;8.47;5.93;;;;;;;;;;10341125;28;20054;-84
2021/09/07 22:59:31;;;;;;;9.03;6.20;;;;;;;;;;10340179;28;20765;-84
2021/09/07 23:04:31;;;;;;;10.43;6.97;;;;;;;;;;10341430;28;20469;-83
2021/09/07 23:09:32;;;;;;;8.88;7.07;;;;;;;;;;10340513;28;20105;-81
2021/09/07 23:14:32;;;;;;;8.00;6.40;;;;;;;;;;10339537;28;20118;-82
2021/09/07 23:19:33;;;;;;;8.48;5.97;;;;;;;;;;10339858;28;20113;-82
2021/09/07 23:24:33;;;;;;;8.27;6.60;;;;;;;;;;10340145;28;20042;-82
2021/09/07 23:29:34;;;;;;;11.00;6.67;;;;;;;;;;10339113;28;20490;-82
2021/09/07 23:34:34;;;;;;;11.27;6.30;;;;;;;;;;10340087;28;20113;-82
2021/09/07 23:39:34;;;;;;;11.37;6.27;;;;;;;;;;10353764;28;20064;-82
2021/09/07 23:44:35;;;;;;;34.87;6.50;;;;;;;;;;10339566;28;20478;-82
2021/09/07 23:49:35;;;;;;;8.30;5.47;;;;;;;;;;10338804;28;20532;-83
2021/09/07 23:54:36;;;;;;;12.93;6.07;;;;;;;;;;10338994;28;20037;-82
2021/09/07 23:59:36;;;;;;;6.90;5.70;;;;;;;;;;10338530;28;20444;-82
